sensor_id;sensor_type;location;lat;lon;timestamp;pressure;altitude;pressure_sealevel;temperature;humidity
57859;BME280;49153;45.568;11.894;2022-11-20T00:00:41;100631.22;;;9.35;79.66
57859;BME280;49153;45.568;11.894;2022-11-20T00:03:07;100617.16;;;9.22;79.79
57859;BME280;49153;45.568;11.894;2022-11-20T00:05:33;100590.50;;;9.01;79.74
57859;BME280;49153;45.568;11.894;2022-11-20T00:07:58;100630.53;;;9.31;79.98
57859;BME280;49153;45.568;11.894;2022-11-20T00:10:23;100634.03;;;9.32;80.14
57859;BME280;49153;45.568;11.894;2022-11-20T00:12:49;100610.00;;;9.11;80.14
57859;BME280;49153;45.568;11.894;2022-11-20T00:15:14;100609.81;;;9.14;80.08
57859;BME280;49153;45.568;11.894;2022-11-20T00:17:40;100617.78;;;9.13;80.39
57859;BME280;49153;45.568;11.894;2022-11-20T00:20:06;100607.69;;;9.07;80.17
57859;BME280;49153;45.568;11.894;2022-11-20T00:22:31;100594.38;;;8.96;80.39
57859;BME280;49153;45.568;11.894;2022-11-20T00:24:57;100597.44;;;8.89;80.07
57859;BME280;49153;45.568;11.894;2022-11-20T00:27:23;100610.56;;;8.89;79.93
57859;BME280;49153;45.568;11.894;2022-11-20T00:29:49;100612.50;;;8.87;80.47
57859;BME280;49153;45.568;11.894;2022-11-20T00:32:16;100592.25;;;8.75;80.32
57859;BME280;49153;45.568;11.894;2022-11-20T00:34:42;100593.09;;;8.76;80.49
57859;BME280;49153;45.568;11.894;2022-11-20T00:37:07;100633.00;;;8.95;80.61
57859;BME280;49153;45.568;11.894;2022-11-20T00:39:33;100633.75;;;8.97;80.80
57859;BME280;49153;45.568;11.894;2022-11-20T00:41:58;100606.88;;;8.79;80.44
57859;BME280;49153;45.568;11.894;2022-11-20T00:44:24;100628.28;;;8.87;80.58
57859;BME280;49153;45.568;11.894;2022-11-20T00:46:49;100626.56;;;8.86;80.29
57859;BME280;49153;45.568;11.894;2022-11-20T00:49:14;100615.38;;;8.83;80.50
57859;BME280;49153;45.568;11.894;2022-11-20T00:51:40;100644.28;;;8.97;80.50
57859;BME280;49153;45.568;11.894;2022-11-20T00:54:05;100613.28;;;8.75;80.76
57859;BME280;49153;45.568;11.894;2022-11-20T00:56:31;100646.06;;;8.97;80.34
57859;BME280;49153;45.568;11.894;2022-11-20T00:58:59;100625.28;;;8.79;79.92
57859;BME280;49153;45.568;11.894;2022-11-20T01:01:25;100633.16;;;8.79;80.22
57859;BME280;49153;45.568;11.894;2022-11-20T01:03:52;100650.88;;;8.90;80.69
57859;BME280;49153;45.568;11.894;2022-11-20T01:06:20;100651.81;;;8.89;80.53
57859;BME280;49153;45.568;11.894;2022-11-20T01:08:47;100641.06;;;8.79;80.20
57859;BME280;49153;45.568;11.894;2022-11-20T01:11:16;100651.59;;;8.79;80.44
57859;BME280;49153;45.568;11.894;2022-11-20T01:13:43;100658.88;;;8.88;80.82
57859;BME280;49153;45.568;11.894;2022-11-20T01:16:20;100673.94;;;8.86;80.65
57859;BME280;49153;45.568;11.894;2022-11-20T01:18:48;100676.47;;;8.88;80.28
57859;BME280;49153;45.568;11.894;2022-11-20T01:21:24;100670.00;;;8.79;80.00
57859;BME280;49153;45.568;11.894;2022-11-20T01:23:50;100647.72;;;8.58;80.61
57859;BME280;49153;45.568;11.894;2022-11-20T01:26:19;100685.13;;;8.76;80.45
57859;BME280;49153;45.568;11.894;2022-11-20T01:28:45;100647.47;;;8.48;80.33
57859;BME280;49153;45.568;11.894;2022-11-20T01:31:22;100653.00;;;8.44;80.15
57859;BME280;49153;45.568;11.894;2022-11-20T01:33:51;100661.75;;;8.44;80.68
57859;BME280;49153;45.568;11.894;2022-11-20T01:36:18;100663.44;;;8.45;80.88
57859;BME280;49153;45.568;11.894;2022-11-20T01:38:45;100668.28;;;8.52;80.84
57859;BME280;49153;45.568;11.894;2022-11-20T01:41:12;100670.88;;;8.39;80.08
57859;BME280;49153;45.568;11.894;2022-11-20T01:43:57;100659.03;;;8.18;80.51
57859;BME280;49153;45.568;11.894;2022-11-20T01:46:23;100695.44;;;8.38;80.85
57859;BME280;49153;45.568;11.894;2022-11-20T01:51:49;100702.88;;;8.31;80.88
57859;BME280;49153;45.568;11.894;2022-11-20T01:54:25;100700.16;;;8.33;80.93
57859;BME280;49153;45.568;11.894;2022-11-20T01:56:57;100692.34;;;8.17;80.49
57859;BME280;49153;45.568;11.894;2022-11-20T01:59:24;100686.44;;;8.14;80.87
57859;BME280;49153;45.568;11.894;2022-11-20T02:01:51;100677.81;;;7.97;80.33
57859;BME280;49153;45.568;11.894;2022-11-20T02:04:18;100698.47;;;8.03;81.05
57859;BME280;49153;45.568;11.894;2022-11-20T02:07:04;100685.38;;;7.88;80.74
57859;BME280;49153;45.568;11.894;2022-11-20T02:09:30;100684.75;;;7.84;80.55
57859;BME280;49153;45.568;11.894;2022-11-20T02:11:57;100687.94;;;7.75;80.92
57859;BME280;49153;45.568;11.894;2022-11-20T02:14:24;100696.56;;;7.77;81.16
57859;BME280;49153;45.568;11.894;2022-11-20T02:16:50;100696.75;;;7.74;81.91
57859;BME280;49153;45.568;11.894;2022-11-20T02:19:26;100673.25;;;7.57;80.98
57859;BME280;49153;45.568;11.894;2022-11-20T02:24:35;100685.88;;;7.66;81.56
57859;BME280;49153;45.568;11.894;2022-11-20T02:27:04;100700.50;;;7.70;81.97
57859;BME280;49153;45.568;11.894;2022-11-20T02:29:51;100697.78;;;7.72;81.53
57859;BME280;49153;45.568;11.894;2022-11-20T02:34:44;100710.69;;;7.60;81.62
57859;BME280;49153;45.568;11.894;2022-11-20T02:37:09;100698.56;;;7.44;81.47
57859;BME280;49153;45.568;11.894;2022-11-20T02:39:35;100702.31;;;7.40;81.97
57859;BME280;49153;45.568;11.894;2022-11-20T02:42:01;100684.81;;;7.25;81.75
57859;BME280;49153;45.568;11.894;2022-11-20T02:44:27;100696.84;;;7.29;82.39
57859;BME280;49153;45.568;11.894;2022-11-20T02:46:52;100674.28;;;7.10;82.38
57859;BME280;49153;45.568;11.894;2022-11-20T02:49:18;100692.88;;;7.21;82.31
57859;BME280;49153;45.568;11.894;2022-11-20T02:51:44;100662.44;;;7.03;82.53
57859;BME280;49153;45.568;11.894;2022-11-20T02:54:09;100698.69;;;7.27;82.66
57859;BME280;49153;45.568;11.894;2022-11-20T02:56:38;100692.56;;;7.12;82.47
57859;BME280;49153;45.568;11.894;2022-11-20T02:59:03;100680.91;;;7.02;82.56
57859;BME280;49153;45.568;11.894;2022-11-20T03:01:29;100684.38;;;7.02;82.74
57859;BME280;49153;45.568;11.894;2022-11-20T03:03:55;100676.88;;;6.96;83.02
57859;BME280;49153;45.568;11.894;2022-11-20T03:06:21;100692.91;;;7.06;83.26
57859;BME280;49153;45.568;11.894;2022-11-20T03:08:47;100703.13;;;7.10;83.06
57859;BME280;49153;45.568;11.894;2022-11-20T03:11:12;100689.72;;;7.01;82.91
57859;BME280;49153;45.568;11.894;2022-11-20T03:13:38;100695.88;;;7.00;83.04
57859;BME280;49153;45.568;11.894;2022-11-20T03:16:12;100657.03;;;6.76;83.38
57859;BME280;49153;45.568;11.894;2022-11-20T03:18:39;100661.81;;;6.84;83.48
57859;BME280;49153;45.568;11.894;2022-11-20T03:21:05;100688.84;;;7.00;83.07
57859;BME280;49153;45.568;11.894;2022-11-20T03:23:32;100667.91;;;6.85;83.53
57859;BME280;49153;45.568;11.894;2022-11-20T03:26:16;100694.28;;;6.97;83.50
57859;BME280;49153;45.568;11.894;2022-11-20T03:28:46;100708.91;;;7.01;83.57
57859;BME280;49153;45.568;11.894;2022-11-20T03:31:13;100719.06;;;7.07;83.63
57859;BME280;49153;45.568;11.894;2022-11-20T03:33:40;100717.44;;;7.05;83.50
57859;BME280;49153;45.568;11.894;2022-11-20T03:36:09;100714.91;;;7.03;83.58
57859;BME280;49153;45.568;11.894;2022-11-20T03:38:36;100719.47;;;7.00;83.28
57859;BME280;49153;45.568;11.894;2022-11-20T03:41:10;100702.75;;;6.87;83.45
57859;BME280;49153;45.568;11.894;2022-11-20T03:43:36;100738.75;;;6.99;83.66
57859;BME280;49153;45.568;11.894;2022-11-20T03:46:02;100721.34;;;6.82;83.24
57859;BME280;49153;45.568;11.894;2022-11-20T03:48:28;100697.34;;;6.58;83.39
57859;BME280;49153;45.568;11.894;2022-11-20T03:53:44;100734.06;;;6.74;83.94
57859;BME280;49153;45.568;11.894;2022-11-20T03:56:12;100705.28;;;6.57;83.92
57859;BME280;49153;45.568;11.894;2022-11-20T03:58:39;100718.31;;;6.58;83.91
57859;BME280;49153;45.568;11.894;2022-11-20T04:01:20;100744.34;;;6.77;84.06
57859;BME280;49153;45.568;11.894;2022-11-20T04:03:47;100705.56;;;6.52;83.96
57859;BME280;49153;45.568;11.894;2022-11-20T04:06:21;100715.13;;;6.53;83.79
57859;BME280;49153;45.568;11.894;2022-11-20T04:08:47;100722.78;;;6.56;84.49
57859;BME280;49153;45.568;11.894;2022-11-20T04:13:39;100729.00;;;6.55;84.11
57859;BME280;49153;45.568;11.894;2022-11-20T04:16:09;100747.66;;;6.65;84.65
57859;BME280;49153;45.568;11.894;2022-11-20T04:18:35;100728.28;;;6.52;84.39
57859;BME280;49153;45.568;11.894;2022-11-20T04:21:02;100754.84;;;6.61;84.69
57859;BME280;49153;45.568;11.894;2022-11-20T04:23:28;100738.94;;;6.49;84.81
57859;BME280;49153;45.568;11.894;2022-11-20T04:25:53;100755.88;;;6.59;84.49
57859;BME280;49153;45.568;11.894;2022-11-20T04:28:19;100744.00;;;6.52;84.98
57859;BME280;49153;45.568;11.894;2022-11-20T04:30:45;100722.38;;;6.32;84.40
57859;BME280;49153;45.568;11.894;2022-11-20T04:33:10;100732.91;;;6.31;84.90
57859;BME280;49153;45.568;11.894;2022-11-20T04:35:37;100757.22;;;6.50;84.93
57859;BME280;49153;45.568;11.894;2022-11-20T04:38:02;100755.66;;;6.46;84.87
57859;BME280;49153;45.568;11.894;2022-11-20T04:40:28;100736.22;;;6.34;85.00
57859;BME280;49153;45.568;11.894;2022-11-20T04:42:54;100730.22;;;6.32;84.58
57859;BME280;49153;45.568;11.894;2022-11-20T04:45:21;100761.63;;;6.50;85.11
57859;BME280;49153;45.568;11.894;2022-11-20T04:47:47;100731.16;;;6.31;84.96
57859;BME280;49153;45.568;11.894;2022-11-20T04:50:13;100734.38;;;6.36;84.95
57859;BME280;49153;45.568;11.894;2022-11-20T04:52:38;100735.28;;;6.35;84.42
57859;BME280;49153;45.568;11.894;2022-11-20T04:55:04;100751.78;;;6.38;84.72
57859;BME280;49153;45.568;11.894;2022-11-20T04:57:29;100758.63;;;6.40;84.90
57859;BME280;49153;45.568;11.894;2022-11-20T04:59:55;100756.84;;;6.41;84.76
57859;BME280;49153;45.568;11.894;2022-11-20T05:02:21;100731.53;;;6.24;84.81
57859;BME280;49153;45.568;11.894;2022-11-20T05:04:47;100741.63;;;6.31;85.07
57859;BME280;49153;45.568;11.894;2022-11-20T05:07:12;100742.78;;;6.26;85.25
57859;BME280;49153;45.568;11.894;2022-11-20T05:09:38;100746.69;;;6.34;85.00
57859;BME280;49153;45.568;11.894;2022-11-20T05:12:04;100724.72;;;6.21;85.23
57859;BME280;49153;45.568;11.894;2022-11-20T05:14:29;100750.25;;;6.33;85.04
57859;BME280;49153;45.568;11.894;2022-11-20T05:16:55;100745.34;;;6.27;84.80
57859;BME280;49153;45.568;11.894;2022-11-20T05:19:20;100771.03;;;6.36;84.75
57859;BME280;49153;45.568;11.894;2022-11-20T05:21:46;100742.44;;;6.16;85.03
57859;BME280;49153;45.568;11.894;2022-11-20T05:24:11;100755.91;;;6.26;85.32
57859;BME280;49153;45.568;11.894;2022-11-20T05:26:37;100745.50;;;6.24;85.01
57859;BME280;49153;45.568;11.894;2022-11-20T05:29:02;100777.06;;;6.39;85.26
57859;BME280;49153;45.568;11.894;2022-11-20T05:31:28;100776.94;;;6.40;85.12
57859;BME280;49153;45.568;11.894;2022-11-20T05:33:54;100774.44;;;6.39;85.27
57859;BME280;49153;45.568;11.894;2022-11-20T05:36:20;100779.69;;;6.39;84.99
57859;BME280;49153;45.568;11.894;2022-11-20T05:38:45;100768.84;;;6.29;85.08
57859;BME280;49153;45.568;11.894;2022-11-20T05:41:12;100770.38;;;6.33;85.24
57859;BME280;49153;45.568;11.894;2022-11-20T05:43:40;100765.81;;;6.36;85.56
57859;BME280;49153;45.568;11.894;2022-11-20T05:46:07;100774.25;;;6.42;85.26
57859;BME280;49153;45.568;11.894;2022-11-20T05:48:33;100779.34;;;6.45;85.41
57859;BME280;49153;45.568;11.894;2022-11-20T05:51:01;100734.34;;;6.21;85.37
57859;BME280;49153;45.568;11.894;2022-11-20T05:53:26;100753.81;;;6.32;84.96
57859;BME280;49153;45.568;11.894;2022-11-20T05:56:04;100768.34;;;6.38;85.17
57859;BME280;49153;45.568;11.894;2022-11-20T05:58:30;100757.34;;;6.31;85.33
57859;BME280;49153;45.568;11.894;2022-11-20T06:03:38;100755.13;;;6.24;85.24
57859;BME280;49153;45.568;11.894;2022-11-20T06:06:05;100779.06;;;6.33;85.16
57859;BME280;49153;45.568;11.894;2022-11-20T06:08:31;100774.75;;;6.32;85.36
57859;BME280;49153;45.568;11.894;2022-11-20T06:10:57;100755.81;;;6.27;85.45
57859;BME280;49153;45.568;11.894;2022-11-20T06:13:22;100743.13;;;6.20;85.26
57859;BME280;49153;45.568;11.894;2022-11-20T06:15:52;100793.97;;;6.49;85.56
57859;BME280;49153;45.568;11.894;2022-11-20T06:18:18;100766.13;;;6.30;85.41
57859;BME280;49153;45.568;11.894;2022-11-20T06:20:43;100780.75;;;6.34;84.88
57859;BME280;49153;45.568;11.894;2022-11-20T06:23:09;100761.38;;;6.21;85.36
57859;BME280;49153;45.568;11.894;2022-11-20T06:25:41;100800.88;;;6.34;84.80
57859;BME280;49153;45.568;11.894;2022-11-20T06:28:08;100795.72;;;6.32;85.13
57859;BME280;49153;45.568;11.894;2022-11-20T06:30:34;100770.47;;;6.14;85.24
57859;BME280;49153;45.568;11.894;2022-11-20T06:33:00;100784.28;;;6.18;85.35
57859;BME280;49153;45.568;11.894;2022-11-20T06:35:26;100768.94;;;6.10;85.38
57859;BME280;49153;45.568;11.894;2022-11-20T06:37:51;100790.25;;;6.20;85.38
57859;BME280;49153;45.568;11.894;2022-11-20T06:42:54;100789.91;;;6.10;85.21
57859;BME280;49153;45.568;11.894;2022-11-20T06:45:21;100811.75;;;6.26;85.80
57859;BME280;49153;45.568;11.894;2022-11-20T06:47:46;100820.88;;;6.35;85.65
57859;BME280;49153;45.568;11.894;2022-11-20T06:50:12;100803.88;;;6.26;85.42
57859;BME280;49153;45.568;11.894;2022-11-20T06:52:37;100821.66;;;6.37;85.44
57859;BME280;49153;45.568;11.894;2022-11-20T06:55:03;100828.53;;;6.40;85.40
57859;BME280;49153;45.568;11.894;2022-11-20T06:57:29;100817.84;;;6.27;85.05
57859;BME280;49153;45.568;11.894;2022-11-20T06:59:54;100798.44;;;6.14;85.02
57859;BME280;49153;45.568;11.894;2022-11-20T07:02:20;100849.56;;;6.38;84.64
57859;BME280;49153;45.568;11.894;2022-11-20T07:04:45;100838.78;;;6.27;84.86
57859;BME280;49153;45.568;11.894;2022-11-20T07:07:10;100848.41;;;6.26;85.03
57859;BME280;49153;45.568;11.894;2022-11-20T07:09:36;100832.88;;;6.23;85.09
57859;BME280;49153;45.568;11.894;2022-11-20T07:12:01;100865.34;;;6.36;84.82
57859;BME280;49153;45.568;11.894;2022-11-20T07:14:27;100861.34;;;6.29;84.99
57859;BME280;49153;45.568;11.894;2022-11-20T07:16:52;100854.81;;;6.21;84.64
57859;BME280;49153;45.568;11.894;2022-11-20T07:19:18;100871.38;;;6.21;84.53
57859;BME280;49153;45.568;11.894;2022-11-20T07:21:43;100878.09;;;6.27;84.45
57859;BME280;49153;45.568;11.894;2022-11-20T07:24:09;100864.75;;;6.14;84.68
57859;BME280;49153;45.568;11.894;2022-11-20T07:26:34;100879.06;;;6.24;84.50
57859;BME280;49153;45.568;11.894;2022-11-20T07:29:00;100890.34;;;6.26;84.61
57859;BME280;49153;45.568;11.894;2022-11-20T07:31:26;100870.16;;;6.11;84.80
57859;BME280;49153;45.568;11.894;2022-11-20T07:33:51;100895.41;;;6.29;84.78
57859;BME280;49153;45.568;11.894;2022-11-20T07:36:16;100866.44;;;6.15;84.77
57859;BME280;49153;45.568;11.894;2022-11-20T07:38:42;100899.47;;;6.35;84.90
57859;BME280;49153;45.568;11.894;2022-11-20T07:41:07;100875.78;;;6.21;85.43
57859;BME280;49153;45.568;11.894;2022-11-20T07:43:33;100858.59;;;6.15;85.26
57859;BME280;49153;45.568;11.894;2022-11-20T07:45:59;100877.06;;;6.29;85.39
57859;BME280;49153;45.568;11.894;2022-11-20T07:48:24;100869.19;;;6.29;85.63
57859;BME280;49153;45.568;11.894;2022-11-20T07:50:56;100871.22;;;6.24;86.00
57859;BME280;49153;45.568;11.894;2022-11-20T07:53:22;100909.88;;;6.54;86.32
57859;BME280;49153;45.568;11.894;2022-11-20T07:58:17;100893.31;;;6.53;86.30
57859;BME280;49153;45.568;11.894;2022-11-20T08:00:43;100916.47;;;6.78;86.58
57859;BME280;49153;45.568;11.894;2022-11-20T08:03:08;100905.22;;;6.76;86.50
57859;BME280;49153;45.568;11.894;2022-11-20T08:05:34;100884.56;;;6.70;87.06
57859;BME280;49153;45.568;11.894;2022-11-20T08:07:59;100916.09;;;7.01;86.63
57859;BME280;49153;45.568;11.894;2022-11-20T08:10:25;100901.47;;;6.97;86.64
57859;BME280;49153;45.568;11.894;2022-11-20T08:12:52;100925.69;;;7.18;86.68
57859;BME280;49153;45.568;11.894;2022-11-20T08:15:37;100902.94;;;7.18;86.69
57859;BME280;49153;45.568;11.894;2022-11-20T08:18:08;100883.59;;;7.19;87.29
57859;BME280;49153;45.568;11.894;2022-11-20T08:20:35;100908.34;;;7.47;87.16
57859;BME280;49153;45.568;11.894;2022-11-20T08:23:01;100930.44;;;7.74;87.97
57859;BME280;49153;45.568;11.894;2022-11-20T08:25:29;100920.81;;;7.89;88.18
57859;BME280;49153;45.568;11.894;2022-11-20T08:27:59;100918.94;;;8.06;87.72
57859;BME280;49153;45.568;11.894;2022-11-20T08:30:25;100924.16;;;8.22;86.83
57859;BME280;49153;45.568;11.894;2022-11-20T08:32:52;100922.78;;;8.31;86.61
57859;BME280;49153;45.568;11.894;2022-11-20T08:35:17;100935.50;;;8.53;86.72
57859;BME280;49153;45.568;11.894;2022-11-20T08:37:46;100950.69;;;8.77;86.61
57859;BME280;49153;45.568;11.894;2022-11-20T08:40:12;100928.78;;;8.77;85.71
57859;BME280;49153;45.568;11.894;2022-11-20T08:42:46;100951.25;;;8.97;84.53
57859;BME280;49153;45.568;11.894;2022-11-20T08:45:11;100929.66;;;8.92;84.58
57859;BME280;49153;45.568;11.894;2022-11-20T08:47:37;100929.28;;;8.98;84.58
57859;BME280;49153;45.568;11.894;2022-11-20T08:50:02;100931.69;;;9.15;84.53
57859;BME280;49153;45.568;11.894;2022-11-20T08:52:28;100961.56;;;9.42;84.03
57859;BME280;49153;45.568;11.894;2022-11-20T08:54:54;100943.25;;;9.41;84.27
57859;BME280;49153;45.568;11.894;2022-11-20T08:57:19;100956.00;;;9.61;83.65
57859;BME280;49153;45.568;11.894;2022-11-20T08:59:45;100947.72;;;9.67;83.79
57859;BME280;49153;45.568;11.894;2022-11-20T09:02:11;100969.75;;;9.93;84.13
57859;BME280;49153;45.568;11.894;2022-11-20T09:04:37;100955.34;;;10.11;84.39
57859;BME280;49153;45.568;11.894;2022-11-20T09:07:02;100959.34;;;10.31;84.20
57859;BME280;49153;45.568;11.894;2022-11-20T09:09:28;100958.22;;;10.47;82.82
57859;BME280;49153;45.568;11.894;2022-11-20T09:11:53;100967.75;;;10.63;82.59
57859;BME280;49153;45.568;11.894;2022-11-20T09:14:19;100959.72;;;10.77;82.64
57859;BME280;49153;45.568;11.894;2022-11-20T09:16:45;100968.81;;;10.98;82.16
57859;BME280;49153;45.568;11.894;2022-11-20T09:19:11;100967.31;;;11.19;82.57
57859;BME280;49153;45.568;11.894;2022-11-20T09:21:37;100969.41;;;11.39;82.40
57859;BME280;49153;45.568;11.894;2022-11-20T09:24:02;100967.88;;;11.61;82.52
57859;BME280;49153;45.568;11.894;2022-11-20T09:26:28;100964.06;;;11.77;81.82
57859;BME280;49153;45.568;11.894;2022-11-20T09:28:54;100977.94;;;11.92;80.25
57859;BME280;49153;45.568;11.894;2022-11-20T09:31:24;100971.78;;;12.04;79.75
57859;BME280;49153;45.568;11.894;2022-11-20T09:33:51;100970.84;;;12.16;79.14
57859;BME280;49153;45.568;11.894;2022-11-20T09:36:17;100976.94;;;12.30;79.24
57859;BME280;49153;45.568;11.894;2022-11-20T09:38:46;100978.19;;;12.48;79.35
57859;BME280;49153;45.568;11.894;2022-11-20T09:41:33;100972.72;;;12.62;79.41
57859;BME280;49153;45.568;11.894;2022-11-20T09:44:16;100979.97;;;12.82;78.38
57859;BME280;49153;45.568;11.894;2022-11-20T09:49:19;100983.88;;;13.00;77.88
57859;BME280;49153;45.568;11.894;2022-11-20T09:51:58;100982.47;;;13.19;76.93
57859;BME280;49153;45.568;11.894;2022-11-20T09:54:33;100982.00;;;13.25;76.28
57859;BME280;49153;45.568;11.894;2022-11-20T09:57:09;100967.31;;;13.32;76.52
57859;BME280;49153;45.568;11.894;2022-11-20T10:02:12;100978.13;;;13.51;74.40
57859;BME280;49153;45.568;11.894;2022-11-20T10:04:44;100973.19;;;13.58;73.69
57859;BME280;49153;45.568;11.894;2022-11-20T10:07:24;100976.69;;;13.69;75.03
57859;BME280;49153;45.568;11.894;2022-11-20T10:09:55;100970.63;;;13.78;73.68
57859;BME280;49153;45.568;11.894;2022-11-20T10:15:05;100970.44;;;13.91;72.56
57859;BME280;49153;45.568;11.894;2022-11-20T10:28:53;100967.63;;;14.15;71.82
57859;BME280;49153;45.568;11.894;2022-11-20T10:31:42;100963.75;;;14.19;71.16
57859;BME280;49153;45.568;11.894;2022-11-20T10:35:06;100965.38;;;14.31;70.90
57859;BME280;49153;45.568;11.894;2022-11-20T10:37:11;100958.81;;;14.46;71.02
57859;BME280;49153;45.568;11.894;2022-11-20T10:42:39;100956.97;;;14.58;68.91
57859;BME280;49153;45.568;11.894;2022-11-20T10:47:56;100944.25;;;14.61;69.35
57859;BME280;49153;45.568;11.894;2022-11-20T10:50:30;100957.03;;;14.67;69.02
57859;BME280;49153;45.568;11.894;2022-11-20T10:53:07;100947.13;;;14.69;69.57
57859;BME280;49153;45.568;11.894;2022-11-20T10:55:45;100941.13;;;14.77;68.91
57859;BME280;49153;45.568;11.894;2022-11-20T11:01:06;100946.38;;;14.88;68.19
57859;BME280;49153;45.568;11.894;2022-11-20T11:03:38;100949.94;;;14.98;69.01
57859;BME280;49153;45.568;11.894;2022-11-20T11:06:17;100949.28;;;15.06;68.83
57859;BME280;49153;45.568;11.894;2022-11-20T11:08:46;100943.38;;;15.02;67.57
57859;BME280;49153;45.568;11.894;2022-11-20T11:11:27;100943.16;;;15.15;67.57
57859;BME280;49153;45.568;11.894;2022-11-20T11:14:04;100940.09;;;15.19;66.83
57859;BME280;49153;45.568;11.894;2022-11-20T11:16:30;100946.56;;;15.27;67.14
57859;BME280;49153;45.568;11.894;2022-11-20T11:19:06;100936.81;;;15.37;67.75
57859;BME280;49153;45.568;11.894;2022-11-20T11:21:32;100935.75;;;15.49;67.62
57859;BME280;49153;45.568;11.894;2022-11-20T11:24:03;100938.03;;;15.53;65.99
57859;BME280;49153;45.568;11.894;2022-11-20T11:26:29;100926.13;;;15.57;66.04
57859;BME280;49153;45.568;11.894;2022-11-20T11:29:01;100930.47;;;15.58;65.53
57859;BME280;49153;45.568;11.894;2022-11-20T11:31:37;100927.16;;;15.45;65.50
57859;BME280;49153;45.568;11.894;2022-11-20T11:34:10;100922.69;;;15.36;65.69
57859;BME280;49153;45.568;11.894;2022-11-20T11:36:37;100927.13;;;15.26;64.52
57859;BME280;49153;45.568;11.894;2022-11-20T11:39:05;100929.50;;;15.29;65.94
57859;BME280;49153;45.568;11.894;2022-11-20T11:41:34;100912.56;;;15.30;64.62
57859;BME280;49153;45.568;11.894;2022-11-20T11:44:26;100917.34;;;15.36;64.74
57859;BME280;49153;45.568;11.894;2022-11-20T11:47:24;100917.91;;;15.40;64.35
57859;BME280;49153;45.568;11.894;2022-11-20T11:52:29;100908.84;;;15.42;63.97
57859;BME280;49153;45.568;11.894;2022-11-20T11:55:02;100903.09;;;15.37;63.47
57859;BME280;49153;45.568;11.894;2022-11-20T11:57:43;100895.13;;;15.37;64.14
57859;BME280;49153;45.568;11.894;2022-11-20T12:00:16;100908.78;;;15.53;63.98
57859;BME280;49153;45.568;11.894;2022-11-20T12:10:40;100896.34;;;15.63;63.33
57859;BME280;49153;45.568;11.894;2022-11-20T12:13:18;100900.81;;;15.63;63.71
57859;BME280;49153;45.568;11.894;2022-11-20T12:15:47;100899.13;;;15.72;63.00
57859;BME280;49153;45.568;11.894;2022-11-20T12:18:17;100889.88;;;15.56;62.62
57859;BME280;49153;45.568;11.894;2022-11-20T12:20:52;100892.41;;;15.68;63.46
57859;BME280;49153;45.568;11.894;2022-11-20T12:23:28;100885.56;;;15.75;62.66
57859;BME280;49153;45.568;11.894;2022-11-20T12:26:01;100895.50;;;15.73;61.88
57859;BME280;49153;45.568;11.894;2022-11-20T12:40:37;100901.09;;;15.30;62.33
57859;BME280;49153;45.568;11.894;2022-11-20T12:56:43;100879.75;;;15.01;62.36
57859;BME280;49153;45.568;11.894;2022-11-20T13:01:50;100879.19;;;15.07;62.95
57859;BME280;49153;45.568;11.894;2022-11-20T13:06:49;100877.09;;;15.01;62.55
57859;BME280;49153;45.568;11.894;2022-11-20T13:09:18;100873.06;;;15.06;63.30
57859;BME280;49153;45.568;11.894;2022-11-20T13:11:48;100870.88;;;15.21;63.45
57859;BME280;49153;45.568;11.894;2022-11-20T13:19:52;100866.03;;;15.45;63.07
57859;BME280;49153;45.568;11.894;2022-11-20T13:22:41;100866.03;;;15.45;62.06
57859;BME280;49153;45.568;11.894;2022-11-20T13:25:21;100867.41;;;15.49;61.59
57859;BME280;49153;45.568;11.894;2022-11-20T13:27:47;100862.69;;;15.43;61.61
57859;BME280;49153;45.568;11.894;2022-11-20T13:30:17;100851.19;;;15.43;61.61
57859;BME280;49153;45.568;11.894;2022-11-20T13:32:58;100852.09;;;15.53;61.30
57859;BME280;49153;45.568;11.894;2022-11-20T13:38:15;100855.19;;;15.77;62.32
57859;BME280;49153;45.568;11.894;2022-11-20T13:40:55;100849.59;;;15.90;60.30
57859;BME280;49153;45.568;11.894;2022-11-20T13:43:41;100859.38;;;15.99;58.93
57859;BME280;49153;45.568;11.894;2022-11-20T13:46:09;100862.19;;;16.07;60.64
57859;BME280;49153;45.568;11.894;2022-11-20T13:48:42;100848.72;;;16.18;60.28
57859;BME280;49153;45.568;11.894;2022-11-20T13:51:27;100848.72;;;16.28;59.20
57859;BME280;49153;45.568;11.894;2022-11-20T14:02:16;100848.81;;;16.36;59.47
57859;BME280;49153;45.568;11.894;2022-11-20T14:04:46;100857.34;;;16.39;58.56
57859;BME280;49153;45.568;11.894;2022-11-20T14:07:13;100842.69;;;16.26;58.46
57859;BME280;49153;45.568;11.894;2022-11-20T14:09:38;100847.31;;;16.14;58.89
57859;BME280;49153;45.568;11.894;2022-11-20T14:12:15;100845.94;;;16.10;59.22
57859;BME280;49153;45.568;11.894;2022-11-20T14:14:51;100840.91;;;16.07;58.76
57859;BME280;49153;45.568;11.894;2022-11-20T14:17:23;100837.56;;;15.86;59.09
57859;BME280;49153;45.568;11.894;2022-11-20T14:19:50;100847.31;;;15.76;59.46
57859;BME280;49153;45.568;11.894;2022-11-20T14:22:26;100839.47;;;15.55;59.26
57859;BME280;49153;45.568;11.894;2022-11-20T14:25:22;100849.22;;;15.35;59.48
57859;BME280;49153;45.568;11.894;2022-11-20T14:30:23;100839.13;;;15.29;60.95
57859;BME280;49153;45.568;11.894;2022-11-20T14:32:49;100848.66;;;15.22;60.70
57859;BME280;49153;45.568;11.894;2022-11-20T14:35:27;100844.50;;;14.99;60.19
57859;BME280;49153;45.568;11.894;2022-11-20T14:37:54;100831.41;;;14.76;60.49
57859;BME280;49153;45.568;11.894;2022-11-20T14:40:28;100847.88;;;14.70;61.13
57859;BME280;49153;45.568;11.894;2022-11-20T14:42:54;100835.28;;;14.63;62.17
57859;BME280;49153;45.568;11.894;2022-11-20T14:45:21;100833.03;;;14.58;62.00